Time;durP1;ratioP1;P1;durP2;ratioP2;P2;SDS_P1;SDS_P2;PMS_P1;PMS_P2;Temp;Humidity;BMP_temperature;BMP_pressure;BME280_temperature;BME280_humidity;BME280_pressure;Samples;Min_cycle;Max_cycle;Signal;HPM_P1;HPM_P2
2022/03/05 00:02:10;;;;;;;41.87;16.80;;;;;;;-0.62;87.93;101581.56;5115310;28;20441;-69
2022/03/05 00:04:37;;;;;;;31.50;17.37;;;;;;;-0.54;87.98;101580.00;5115511;28;20800;-69
2022/03/05 00:07:04;;;;;;;36.77;16.83;;;;;;;-0.54;88.08;101580.00;5115119;28;20861;-69
2022/03/05 00:09:30;;;;;;;29.20;16.20;;;;;;;-0.60;87.99;101574.75;5115048;28;20426;-68
2022/03/05 00:11:57;;;;;;;38.77;17.47;;;;;;;-0.66;88.45;101575.50;5114999;28;20456;-68
2022/03/05 00:14:25;;;;;;;37.37;16.47;;;;;;;-0.70;88.34;101572.84;5114982;28;20440;-69
2022/03/05 00:16:52;;;;;;;43.70;18.10;;;;;;;-0.75;88.72;101580.47;5114939;28;20421;-69
2022/03/05 00:19:18;;;;;;;30.53;15.77;;;;;;;-0.74;88.86;101578.75;5114936;28;20422;-69
2022/03/05 00:21:46;;;;;;;37.20;16.87;;;;;;;-0.76;89.03;101580.44;5114984;28;20468;-69
2022/03/05 00:24:12;;;;;;;34.60;16.43;;;;;;;-0.77;88.60;101584.72;5114813;28;20433;-69
2022/03/05 00:26:39;;;;;;;33.97;16.40;;;;;;;-0.81;89.00;101579.50;5114981;28;20465;-69
2022/03/05 00:29:07;;;;;;;38.07;16.83;;;;;;;-0.76;88.70;101583.88;5096419;28;20784;-69
2022/03/05 00:31:34;;;;;;;42.60;17.07;;;;;;;-0.88;89.86;101584.50;5114828;28;20472;-69
2022/03/05 00:34:00;;;;;;;33.20;16.77;;;;;;;-0.95;89.68;101577.50;5114618;28;20513;-69
2022/03/05 00:36:27;;;;;;;35.77;16.77;;;;;;;-0.88;89.34;101584.50;5114585;28;20942;-69
2022/03/05 00:38:53;;;;;;;33.93;17.83;;;;;;;-0.93;89.74;101581.00;5114480;28;20433;-69
2022/03/05 00:41:20;;;;;;;34.47;17.20;;;;;;;-0.84;89.29;101580.31;5114702;28;20456;-69
2022/03/05 00:43:46;;;;;;;37.13;17.40;;;;;;;-0.92;89.45;101579.28;5114454;28;20931;-69
2022/03/05 00:46:13;;;;;;;39.33;17.77;;;;;;;-0.96;89.51;101580.94;5114616;28;20458;-69
2022/03/05 00:48:41;;;;;;;39.30;16.70;;;;;;;-1.02;89.81;101579.94;5114368;28;20430;-69
2022/03/05 00:51:08;;;;;;;35.20;17.17;;;;;;;-0.94;89.37;101586.09;5114295;28;20454;-69
2022/03/05 00:53:34;;;;;;;32.93;17.40;;;;;;;-0.98;89.53;101577.47;5114112;28;20434;-69
2022/03/05 00:56:01;;;;;;;35.20;17.13;;;;;;;-1.00;89.71;101576.59;5114213;28;20424;-69
2022/03/05 00:58:27;;;;;;;37.53;17.90;;;;;;;-0.95;89.84;101577.50;5114141;28;20437;-69
2022/03/05 01:00:54;;;;;;;40.50;17.83;;;;;;;-1.05;89.64;101570.47;5114285;28;20449;-69
2022/03/05 01:03:22;;;;;;;33.90;17.43;;;;;;;-1.13;90.16;101574.59;5114051;28;20441;-69
2022/03/05 01:05:50;;;;;;;34.73;16.90;;;;;;;-1.15;90.19;101571.97;5114023;28;20555;-69
2022/03/05 01:08:17;;;;;;;34.90;15.90;;;;;;;-1.18;90.92;101568.50;5114042;28;20799;-69
2022/03/05 01:10:43;;;;;;;39.30;17.87;;;;;;;-1.22;91.21;101562.41;5113871;28;20981;-69
2022/03/05 01:13:10;;;;;;;34.53;17.07;;;;;;;-1.18;91.23;101565.91;5113980;28;20426;-69
2022/03/05 01:15:36;;;;;;;41.03;17.60;;;;;;;-1.24;90.97;101558.09;5113942;28;20916;-69
2022/03/05 01:18:03;;;;;;;31.50;17.10;;;;;;;-1.18;90.79;101566.78;5114140;28;20483;-69
2022/03/05 01:20:30;;;;;;;47.90;17.47;;;;;;;-1.21;90.80;101566.72;5113516;28;20946;-68
2022/03/05 01:22:56;;;;;;;37.87;17.27;;;;;;;-1.29;91.15;101559.69;5113815;28;20433;-69
2022/03/05 01:25:23;;;;;;;41.27;18.23;;;;;;;-1.34;91.25;101554.47;5113606;28;20441;-69
2022/03/05 01:27:50;;;;;;;33.63;15.53;;;;;;;-1.37;91.75;101551.81;5114324;28;20433;-69
2022/03/05 01:30:16;;;;;;;39.07;17.57;;;;;;;-1.32;91.63;101552.78;5113695;28;20935;-69
2022/03/05 01:32:43;;;;;;;40.13;18.57;;;;;;;-1.35;91.56;101550.19;5113715;28;20425;-69
2022/03/05 01:35:09;;;;;;;37.30;18.03;;;;;;;-1.47;91.64;101549.91;5113761;28;20432;-69
2022/03/05 01:37:36;;;;;;;35.10;15.37;;;;;;;-1.45;91.55;101551.66;5113943;28;20425;-69
2022/03/05 01:40:03;;;;;;;38.90;17.67;;;;;;;-1.44;91.66;101555.97;5113922;28;20433;-69
2022/03/05 01:42:30;;;;;;;37.60;17.20;;;;;;;-1.46;92.37;101547.38;5113611;28;20445;-69
2022/03/05 01:44:56;;;;;;;42.97;17.77;;;;;;;-1.47;92.25;101548.22;5113646;28;20436;-69
2022/03/05 01:47:23;;;;;;;36.23;17.37;;;;;;;-1.46;92.48;101552.50;5113511;28;20464;-69
2022/03/05 01:49:50;;;;;;;43.23;16.77;;;;;;;-1.46;92.41;101555.06;5113605;28;20433;-69
2022/03/05 01:52:17;;;;;;;42.73;18.30;;;;;;;-1.45;92.38;101551.66;5114012;28;20454;-68
2022/03/05 01:54:44;;;;;;;38.27;17.17;;;;;;;-1.41;92.48;101550.91;5114120;28;20432;-68
2022/03/05 01:57:11;;;;;;;40.37;18.03;;;;;;;-1.44;92.26;101550.81;5113796;28;20421;-68
2022/03/05 01:59:38;;;;;;;44.13;19.33;;;;;;;-1.57;92.60;101548.84;5113465;28;20433;-68
2022/03/05 02:02:05;;;;;;;37.20;16.33;;;;;;;-1.53;92.79;101553.22;5113712;28;20457;-68
2022/03/05 02:04:32;;;;;;;34.97;16.67;;;;;;;-1.62;93.05;101549.59;5113440;28;20942;-68
2022/03/05 02:06:59;;;;;;;41.17;16.63;;;;;;;-1.57;93.09;101554.00;5095593;28;20815;-68
2022/03/05 02:09:26;;;;;;;41.73;15.50;;;;;;;-1.65;93.15;101550.38;5113571;28;20438;-68
2022/03/05 02:11:53;;;;;;;47.33;16.43;;;;;;;-1.69;93.23;101546.88;5113567;28;20885;-68
2022/03/05 02:14:20;;;;;;;34.87;17.10;;;;;;;-1.67;93.08;101549.47;5113965;28;20402;-68
2022/03/05 02:16:47;;;;;;;38.37;17.53;;;;;;;-1.67;93.25;101544.34;5113592;28;20426;-68
2022/03/05 02:19:14;;;;;;;38.67;17.83;;;;;;;-1.66;93.43;101544.38;5113516;28;20487;-68
2022/03/05 02:21:45;;;;;;;35.20;15.80;;;;;;;-1.65;93.49;101545.22;5113125;28;20461;-68
2022/03/05 02:24:13;;;;;;;48.40;17.30;;;;;;;-1.72;93.29;101544.22;5113270;28;20413;-68
2022/03/05 02:26:39;;;;;;;41.80;17.60;;;;;;;-1.74;93.76;101538.19;5113196;28;20457;-68
2022/03/05 02:29:07;;;;;;;36.47;18.00;;;;;;;-1.69;93.49;101543.44;5113461;28;20836;-68
2022/03/05 02:31:34;;;;;;;26.40;15.00;;;;;;;-1.74;93.58;101538.19;5113503;28;20450;-68
2022/03/05 02:34:00;;;;;;;33.83;15.83;;;;;;;-1.78;93.63;101538.13;5117036;28;20429;-68
2022/03/05 02:36:27;;;;;;;35.87;15.13;;;;;;;-1.79;93.65;101541.50;5116964;28;20864;-68
2022/03/05 02:38:54;;;;;;;31.83;15.13;;;;;;;-1.77;93.74;101539.84;5116928;28;20437;-68
2022/03/05 02:41:20;;;;;;;34.87;16.47;;;;;;;-1.84;93.66;101540.53;5117074;28;20785;-68
2022/03/05 02:43:47;;;;;;;40.10;18.13;;;;;;;-1.89;94.04;101530.16;5116798;28;20433;-68
2022/03/05 02:46:14;;;;;;;39.00;17.23;;;;;;;-1.85;94.19;101533.69;5116961;28;20461;-68
2022/03/05 02:48:41;;;;;;;30.10;15.37;;;;;;;-1.88;94.16;101531.03;5116719;28;20927;-68
2022/03/05 02:51:07;;;;;;;33.63;15.33;;;;;;;-1.89;94.31;101529.31;5116638;28;20449;-68
2022/03/05 02:53:35;;;;;;;33.90;16.37;;;;;;;-1.90;94.31;101532.72;5116902;28;20429;-68
2022/03/05 02:56:03;;;;;;;41.93;18.17;;;;;;;-1.85;94.16;101528.56;5116856;28;20417;-68
2022/03/05 02:58:32;;;;;;;42.73;16.73;;;;;;;-1.88;94.17;101528.47;5117110;28;20946;-68
2022/03/05 03:00:59;;;;;;;38.50;16.90;;;;;;;-1.82;93.96;101528.59;5117004;28;20441;-68
2022/03/05 03:03:25;;;;;;;41.90;16.57;;;;;;;-1.95;94.17;101522.31;5116713;28;20425;-68
2022/03/05 03:05:52;;;;;;;28.10;15.70;;;;;;;-1.97;94.38;101527.44;5116609;28;20437;-68
2022/03/05 03:08:19;;;;;;;45.13;17.40;;;;;;;-1.99;94.25;101529.09;5116372;28;20425;-69
2022/03/05 03:10:46;;;;;;;40.40;16.30;;;;;;;-1.97;94.44;101532.56;5116526;28;20445;-69
2022/03/05 03:13:12;;;;;;;38.20;16.97;;;;;;;-1.99;94.51;101531.66;5116777;28;20468;-69
2022/03/05 03:15:39;;;;;;;45.07;15.97;;;;;;;-2.01;94.34;101528.19;5116218;28;20971;-69
2022/03/05 03:18:06;;;;;;;43.80;16.50;;;;;;;-2.04;94.25;101524.69;5116171;28;20433;-69
2022/03/05 03:20:32;;;;;;;34.13;16.40;;;;;;;-2.03;94.26;101532.41;5116007;28;20484;-68
2022/03/05 03:23:00;;;;;;;43.67;16.57;;;;;;;-1.96;94.23;101518.03;5116114;28;20777;-68
2022/03/05 03:25:27;;;;;;;43.63;16.27;;;;;;;-2.11;94.53;101523.69;5116321;28;20421;-68
2022/03/05 03:27:53;;;;;;;42.90;16.10;;;;;;;-2.08;94.33;101521.16;5115866;28;20457;-68
2022/03/05 03:30:20;;;;;;;47.13;16.53;;;;;;;-2.09;94.36;101522.00;5115877;28;20433;-68
2022/03/05 03:32:47;;;;;;;46.07;16.20;;;;;;;-2.12;94.49;101516.81;5115919;28;20464;-68
2022/03/05 03:35:15;;;;;;;42.70;17.63;;;;;;;-2.18;94.49;101514.09;5116458;28;20444;-68
2022/03/05 03:37:43;;;;;;;38.33;16.07;;;;;;;-2.18;94.61;101520.94;5116181;28;20942;-68
2022/03/05 03:40:12;;;;;;;35.90;17.10;;;;;;;-2.19;94.47;101514.94;5115709;28;20440;-69
2022/03/05 03:42:39;;;;;;;42.73;18.20;;;;;;;-2.27;94.75;101531.84;5115507;28;20415;-68
2022/03/05 03:45:07;;;;;;;37.87;16.73;;;;;;;-2.16;94.86;101524.41;5115680;28;20482;-68
2022/03/05 03:47:34;;;;;;;37.97;16.80;;;;;;;-2.13;94.63;101530.47;5115540;28;20454;-68
2022/03/05 03:50:01;;;;;;;41.00;15.03;;;;;;;-2.14;94.53;101533.88;5115801;28;20811;-68
2022/03/05 03:52:28;;;;;;;40.23;15.70;;;;;;;-2.23;94.78;101534.50;5115436;28;20449;-68
2022/03/05 03:54:54;;;;;;;41.40;16.57;;;;;;;-2.22;94.91;101530.25;5115463;28;20429;-68
2022/03/05 03:57:21;;;;;;;36.83;15.50;;;;;;;-2.27;94.93;101544.69;5115698;28;20421;-68
2022/03/05 03:59:51;;;;;;;49.00;15.20;;;;;;;-2.12;94.53;101537.34;5116161;28;20444;-68
2022/03/05 04:02:19;;;;;;;25.90;14.30;;;;;;;-2.17;94.53;101538.91;5116285;28;20445;-68
2022/03/05 04:04:46;;;;;;;43.47;16.83;;;;;;;-2.16;94.61;101545.78;5115246;28;20544;-68
2022/03/05 04:10:01;;;;;;;38.87;15.23;;;;;;;-2.30;94.86;101550.56;5115498;28;20444;-68
2022/03/05 04:12:28;;;;;;;32.40;15.60;;;;;;;-2.22;94.88;101550.75;5115033;28;20861;-68
2022/03/05 04:14:55;;;;;;;38.03;15.13;;;;;;;-2.20;94.86;101541.44;5115020;28;20799;-68
2022/03/05 04:17:24;;;;;;;41.77;15.53;;;;;;;-2.19;94.59;101544.84;5114999;28;20430;-68
2022/03/05 04:19:50;;;;;;;37.93;17.27;;;;;;;-2.29;94.63;101549.75;5114824;28;20437;-68
2022/03/05 04:22:17;;;;;;;57.70;16.97;;;;;;;-2.29;94.85;101552.31;5114850;28;20445;-68
2022/03/05 04:24:43;;;;;;;35.33;15.13;;;;;;;-2.29;94.87;101552.31;5115141;28;20430;-68
2022/03/05 04:27:10;;;;;;;47.80;15.67;;;;;;;-2.29;94.88;101547.19;5114658;28;20821;-68
2022/03/05 04:29:37;;;;;;;38.33;15.00;;;;;;;-2.26;94.77;101548.97;5115338;28;20448;-68
2022/03/05 04:32:04;;;;;;;44.60;17.27;;;;;;;-2.26;94.94;101541.28;5114604;28;20514;-68
2022/03/05 04:34:31;;;;;;;36.50;14.23;;;;;;;-2.23;94.73;101552.47;5114642;28;20433;-68
2022/03/05 04:36:57;;;;;;;31.63;14.70;;;;;;;-2.23;94.46;101544.75;5114635;28;20421;-68
2022/03/05 04:39:24;;;;;;;39.30;15.87;;;;;;;-2.27;94.68;101550.66;5114580;28;20441;-68
2022/03/05 04:41:51;;;;;;;36.10;15.90;;;;;;;-2.30;94.76;101554.84;5114728;28;20803;-68
2022/03/05 04:44:17;;;;;;;53.63;16.70;;;;;;;-2.23;94.30;101556.72;5114835;28;20872;-68
2022/03/05 04:46:44;;;;;;;36.70;15.67;;;;;;;-2.34;94.64;101550.47;5114362;28;20468;-70
2022/03/05 04:49:14;;;;;;;47.83;15.27;;;;;;;-2.36;94.76;101549.56;5114315;28;20922;-70
2022/03/05 04:51:41;;;;;;;36.33;14.37;;;;;;;-2.35;94.50;101559.00;5114282;28;20450;-70
2022/03/05 04:54:09;;;;;;;34.23;14.90;;;;;;;-2.40;94.69;101552.88;5113847;28;20462;-70
2022/03/05 04:56:36;;;;;;;33.13;14.33;;;;;;;-2.38;94.85;101554.66;5113958;28;20444;-70
2022/03/05 04:59:04;;;;;;;38.03;16.00;;;;;;;-2.35;94.88;101554.75;5114469;28;20429;-70
2022/03/05 05:01:31;;;;;;;32.47;14.70;;;;;;;-2.46;94.93;101550.16;5114384;28;20496;-70
2022/03/05 05:03:59;;;;;;;40.73;15.53;;;;;;;-2.44;95.34;101556.19;5114396;28;20430;-70
2022/03/05 05:06:25;;;;;;;39.27;14.70;;;;;;;-2.40;95.11;101551.19;5114038;28;20437;-70
2022/03/05 05:08:52;;;;;;;28.73;13.80;;;;;;;-2.42;95.17;101560.56;5114372;28;20433;-70
2022/03/05 05:11:19;;;;;;;33.77;14.27;;;;;;;-2.44;94.90;101559.63;5114359;28;20452;-70
2022/03/05 05:13:45;;;;;;;40.03;16.17;;;;;;;-2.48;95.05;101555.25;5114619;28;20410;-70
2022/03/05 05:16:12;;;;;;;43.20;14.67;;;;;;;-2.43;95.15;101558.78;5113933;28;20931;-70
2022/03/05 05:18:38;;;;;;;32.77;14.40;;;;;;;-2.44;94.98;101563.88;5114176;28;20440;-70
2022/03/05 05:21:05;;;;;;;45.63;16.90;;;;;;;-2.54;95.28;101558.53;5113991;28;20467;-69
2022/03/05 05:23:31;;;;;;;37.33;15.80;;;;;;;-2.50;95.19;101556.91;5113895;28;20433;-69
2022/03/05 05:25:58;;;;;;;34.60;16.23;;;;;;;-2.48;95.04;101562.09;5113861;28;20429;-69
2022/03/05 05:28:25;;;;;;;35.77;15.33;;;;;;;-2.54;95.06;101568.78;5114033;28;20461;-69
2022/03/05 05:30:51;;;;;;;30.90;14.57;;;;;;;-2.55;95.44;101559.38;5113992;28;20437;-69
2022/03/05 05:33:19;;;;;;;46.47;15.87;;;;;;;-2.47;95.59;101562.13;5113799;28;20516;-69
2022/03/05 05:35:46;;;;;;;37.70;15.43;;;;;;;-2.52;95.40;101566.25;5113864;28;20914;-70
2022/03/05 05:38:13;;;;;;;39.67;15.37;;;;;;;-2.57;95.54;101566.16;5113820;28;20422;-70
2022/03/05 05:40:39;;;;;;;32.73;13.27;;;;;;;-2.58;95.70;101566.97;5113645;28;20456;-70
2022/03/05 05:43:06;;;;;;;41.83;16.43;;;;;;;-2.56;95.57;101564.47;5113681;28;20450;-70
2022/03/05 05:45:32;;;;;;;42.80;15.33;;;;;;;-2.59;95.45;101565.22;5113929;28;20436;-70
2022/03/05 05:48:01;;;;;;;35.70;15.90;;;;;;;-2.65;95.52;101570.19;5113568;28;20445;-70
2022/03/05 05:50:28;;;;;;;27.57;15.37;;;;;;;-2.59;95.45;101565.22;5113816;28;20489;-70
2022/03/05 05:52:54;;;;;;;37.53;15.50;;;;;;;-2.67;95.54;101579.53;5113889;28;20418;-69
2022/03/05 05:55:21;;;;;;;36.33;14.90;;;;;;;-2.62;95.67;101575.41;5113867;28;20417;-69
2022/03/05 05:57:47;;;;;;;29.77;14.93;;;;;;;-2.65;95.80;101580.44;5113529;28;20429;-69
2022/03/05 06:00:14;;;;;;;38.53;14.40;;;;;;;-2.52;95.55;101577.38;5113421;28;20911;-69
2022/03/05 06:02:42;;;;;;;38.77;14.50;;;;;;;-2.65;95.51;101582.13;5114070;28;20831;-69
2022/03/05 06:05:09;;;;;;;38.20;14.83;;;;;;;-2.56;95.70;101579.84;5113756;28;20435;-69
2022/03/05 06:07:36;;;;;;;37.80;15.87;;;;;;;-2.61;95.28;101569.47;5117300;28;20807;-69
2022/03/05 06:10:03;;;;;;;39.17;14.27;;;;;;;-2.60;95.39;101572.88;5117493;28;20440;-69
2022/03/05 06:12:29;;;;;;;41.90;13.57;;;;;;;-2.64;95.66;101582.22;5117441;28;20456;-69
2022/03/05 06:14:56;;;;;;;33.30;14.57;;;;;;;-2.66;95.86;101570.16;5117442;28;20440;-70
2022/03/05 06:17:22;;;;;;;36.00;14.37;;;;;;;-2.56;95.44;101565.31;5118174;28;20769;-70
2022/03/05 06:19:49;;;;;;;38.37;14.60;;;;;;;-2.60;95.10;101573.75;5117211;28;20426;-70
2022/03/05 06:22:15;;;;;;;30.63;15.03;;;;;;;-2.64;95.51;101573.66;5117477;28;20957;-70
2022/03/05 06:24:42;;;;;;;33.67;15.10;;;;;;;-2.68;95.72;101571.81;5117757;28;20425;-70
2022/03/05 06:27:09;;;;;;;39.03;15.17;;;;;;;-2.60;95.81;101566.06;5117396;28;20449;-70
2022/03/05 06:29:35;;;;;;;34.43;14.77;;;;;;;-2.57;95.53;101565.25;5117371;28;20500;-70
2022/03/05 06:32:03;;;;;;;37.40;15.00;;;;;;;-2.63;95.69;101558.31;5117305;28;20453;-70
2022/03/05 06:34:31;;;;;;;40.23;15.00;;;;;;;-2.59;95.76;101565.22;5117289;28;20414;-70
2022/03/05 06:36:58;;;;;;;31.33;14.50;;;;;;;-2.60;96.00;101571.19;5117015;28;20441;-70
2022/03/05 06:39:24;;;;;;;43.43;15.23;;;;;;;-2.60;96.20;101566.06;5117516;28;20432;-70
2022/03/05 06:41:51;;;;;;;34.63;15.90;;;;;;;-2.60;96.21;101572.88;5117021;28;20449;-70
2022/03/05 06:44:17;;;;;;;33.53;14.67;;;;;;;-2.61;95.85;101571.16;5117460;28;20413;-70
2022/03/05 06:46:44;;;;;;;32.57;15.40;;;;;;;-2.50;95.85;101573.19;5116761;28;20433;-70
2022/03/05 06:49:10;;;;;;;37.17;15.97;;;;;;;-2.51;95.84;101580.81;5116911;28;20489;-70
2022/03/05 06:51:37;;;;;;;39.47;15.67;;;;;;;-2.43;95.86;101571.59;5116756;28;20449;-70
2022/03/05 06:54:03;;;;;;;35.83;14.73;;;;;;;-2.39;96.16;101578.56;5116653;28;20421;-70
2022/03/05 06:56:30;;;;;;;36.30;14.63;;;;;;;-2.31;95.56;101582.19;5116562;28;20434;-70
2022/03/05 06:58:56;;;;;;;40.33;15.00;;;;;;;-2.22;95.49;101586.66;5116522;28;20426;-70
2022/03/05 07:01:23;;;;;;;34.83;15.43;;;;;;;-2.20;95.55;101579.91;5117044;28;20966;-70
2022/03/05 07:03:50;;;;;;;38.70;16.07;;;;;;;-2.12;95.60;101585.22;5116422;28;20434;-70
2022/03/05 07:06:16;;;;;;;37.23;15.50;;;;;;;-2.02;95.35;101580.31;5116661;28;20448;-70
2022/03/05 07:08:43;;;;;;;30.30;14.93;;;;;;;-1.86;95.04;101578.13;5116250;28;20861;-70
2022/03/05 07:11:10;;;;;;;47.20;18.30;;;;;;;-1.89;94.88;101585.75;5116203;28;20460;-70
2022/03/05 07:13:36;;;;;;;44.33;17.57;;;;;;;-1.80;95.22;101591.09;5116847;28;20897;-70
2022/03/05 07:16:03;;;;;;;37.67;15.87;;;;;;;-1.73;94.82;101595.53;5116436;28;20863;-70
2022/03/05 07:18:30;;;;;;;41.60;16.17;;;;;;;-1.56;94.24;101593.38;5115335;28;20414;-70
2022/03/05 07:20:57;;;;;;;35.87;15.83;;;;;;;-1.61;94.21;101593.25;5116523;28;20556;-70
2022/03/05 07:23:24;;;;;;;35.30;16.10;;;;;;;-1.43;93.25;101595.34;5116293;28;20787;-70
2022/03/05 07:25:51;;;;;;;47.90;16.33;;;;;;;-1.24;92.66;101600.06;5116245;28;20446;-70
2022/03/05 07:28:18;;;;;;;35.33;15.67;;;;;;;-1.16;91.94;101608.78;5115899;28;20796;-70
2022/03/05 07:30:45;;;;;;;52.70;18.07;;;;;;;-1.13;91.80;101608.00;5115781;28;20985;-70
2022/03/05 07:33:13;;;;;;;44.87;16.23;;;;;;;-1.10;91.72;101605.47;5115908;28;20516;-70
2022/03/05 07:35:40;;;;;;;43.83;16.53;;;;;;;-1.00;91.55;101604.84;5115801;28;20422;-70
2022/03/05 07:38:06;;;;;;;38.67;16.07;;;;;;;-0.88;91.07;101604.19;5116426;28;20409;-70
2022/03/05 07:40:33;;;;;;;43.20;16.67;;;;;;;-0.87;91.59;101604.22;5115762;28;20421;-70
2022/03/05 07:43:00;;;;;;;43.33;17.23;;;;;;;-0.70;91.06;101607.16;5115686;28;20923;-70
2022/03/05 07:45:26;;;;;;;38.13;16.53;;;;;;;-0.53;90.99;101609.16;5115926;28;20460;-70
2022/03/05 07:47:53;;;;;;;38.40;17.40;;;;;;;-0.48;89.34;101616.13;5115491;28;20464;-70
2022/03/05 07:50:20;;;;;;;43.37;15.80;;;;;;;-0.35;88.29;101614.66;5115444;28;20432;-70
2022/03/05 07:52:46;;;;;;;34.43;14.33;;;;;;;-0.28;87.67;101609.63;5115572;28;20422;-71
2022/03/05 07:55:13;;;;;;;44.77;17.00;;;;;;;-0.28;87.61;101611.34;5115645;28;20463;-70
2022/03/05 07:57:40;;;;;;;37.03;14.60;;;;;;;-0.22;87.25;101619.13;5115692;28;20426;-70
2022/03/05 08:00:07;;;;;;;31.60;16.03;;;;;;;-0.06;88.05;101626.31;5115345;28;20426;-70
2022/03/05 08:02:50;;;;;;;34.57;14.90;;;;;;;0.01;87.04;101631.56;5115842;28;20510;-70
2022/03/05 08:05:17;;;;;;;38.10;15.73;;;;;;;0.13;86.55;101627.44;5115269;28;20426;-70
2022/03/05 08:07:44;;;;;;;34.80;16.33;;;;;;;0.13;87.58;101631.72;5115603;28;20637;-70
2022/03/05 08:10:10;;;;;;;31.30;15.73;;;;;;;0.31;87.04;101629.47;5115343;28;20946;-70
2022/03/05 08:12:37;;;;;;;32.00;15.77;;;;;;;0.39;86.05;101627.00;5114885;28;21004;-70
2022/03/05 08:15:05;;;;;;;28.50;15.43;;;;;;;0.42;84.82;101634.75;5115197;28;20788;-70
2022/03/05 08:17:31;;;;;;;41.43;15.93;;;;;;;0.49;85.53;101637.44;5115486;28;20520;-70
2022/03/05 08:19:58;;;;;;;47.23;16.83;;;;;;;0.57;84.73;101637.56;5114960;28;20810;-70
2022/03/05 08:22:25;;;;;;;38.00;15.83;;;;;;;0.66;84.00;101639.44;5115678;28;20445;-70
2022/03/05 08:24:52;;;;;;;38.50;16.70;;;;;;;0.77;83.84;101641.28;5114843;28;20434;-70
2022/03/05 08:27:18;;;;;;;33.70;16.33;;;;;;;0.77;83.83;101643.84;5115292;28;20783;-70
2022/03/05 08:29:45;;;;;;;34.97;17.13;;;;;;;0.88;83.19;101636.28;5114729;28;20429;-70
2022/03/05 08:32:12;;;;;;;33.93;16.47;;;;;;;1.10;83.33;101642.59;5114714;28;20437;-70
2022/03/05 08:34:38;;;;;;;39.03;16.00;;;;;;;1.11;82.49;101636.56;5114620;28;20182;-70
2022/03/05 08:37:05;;;;;;;37.27;15.87;;;;;;;1.25;81.94;101637.59;5114844;28;20447;-70
2022/03/05 08:39:32;;;;;;;28.73;15.53;;;;;;;1.40;82.20;101636.91;5114577;28;20200;-71
2022/03/05 08:41:58;;;;;;;37.67;15.93;;;;;;;1.65;80.46;101640.63;5114435;28;20441;-70
2022/03/05 08:44:25;;;;;;;42.23;16.00;;;;;;;1.77;80.64;101639.88;5114744;28;20421;-70
2022/03/05 08:46:51;;;;;;;32.13;16.57;;;;;;;1.95;79.44;101631.44;5114578;28;20439;-68
2022/03/05 08:49:19;;;;;;;27.70;15.00;;;;;;;2.10;78.11;101634.16;5114539;28;20668;-68
2022/03/05 08:51:45;;;;;;;32.60;16.00;;;;;;;2.18;78.30;101624.72;5115087;28;20567;-68
2022/03/05 08:54:12;;;;;;;31.17;15.47;;;;;;;2.33;78.18;101619.69;5114464;28;20190;-68
2022/03/05 08:56:38;;;;;;;28.20;14.87;;;;;;;2.57;77.45;101619.00;5114176;28;20181;-68
2022/03/05 08:59:05;;;;;;;30.90;15.93;;;;;;;2.74;77.54;101616.50;5114157;28;20190;-68
2022/03/05 09:01:31;;;;;;;33.73;15.63;;;;;;;2.71;76.05;101617.31;5114079;28;20205;-68
2022/03/05 09:03:58;;;;;;;33.77;15.30;;;;;;;2.93;75.13;101610.56;5114758;28;20204;-70
2022/03/05 09:06:25;;;;;;;34.13;14.83;;;;;;;2.84;74.26;101619.97;5114025;28;20662;-70
2022/03/05 09:08:52;;;;;;;29.73;15.87;;;;;;;3.00;73.89;101617.50;5114256;28;20216;-70
2022/03/05 09:11:18;;;;;;;39.27;17.37;;;;;;;3.25;73.86;101615.84;5114133;28;20288;-70
2022/03/05 09:13:45;;;;;;;21.77;14.90;;;;;;;3.39;72.30;101613.28;5114052;28;20182;-68
2022/03/05 09:16:12;;;;;;;33.43;15.47;;;;;;;3.51;71.73;101615.94;5114003;28;20207;-68
2022/03/05 09:18:38;;;;;;;28.87;15.33;;;;;;;3.70;71.55;101613.34;5114185;28;20200;-68
2022/03/05 09:21:05;;;;;;;26.40;15.17;;;;;;;3.59;70.18;101611.63;5113797;28;20762;-68
2022/03/05 09:23:31;;;;;;;29.07;15.67;;;;;;;3.73;70.72;101614.22;5113806;28;20192;-68
2022/03/05 09:25:58;;;;;;;31.30;15.43;;;;;;;4.01;70.52;101620.28;5114289;28;20547;-68
2022/03/05 09:28:25;;;;;;;35.60;15.33;;;;;;;3.92;69.71;101609.03;5114262;28;20208;-68
2022/03/05 09:30:51;;;;;;;37.17;16.03;;;;;;;4.02;68.28;101614.25;5113654;28;20201;-68
2022/03/05 09:33:21;;;;;;;27.47;15.53;;;;;;;4.09;70.42;101610.78;5114307;28;20177;-68
2022/03/05 09:35:47;;;;;;;31.37;16.07;;;;;;;4.03;69.33;101615.97;5113895;28;20188;-68
2022/03/05 09:38:14;;;;;;;39.83;15.80;;;;;;;4.29;68.73;101612.53;5114291;28;20599;-68
2022/03/05 09:40:40;;;;;;;35.73;14.93;;;;;;;4.62;70.06;101614.16;5113204;28;20205;-68
2022/03/05 09:43:08;;;;;;;29.77;15.40;;;;;;;4.64;67.63;101605.53;5114040;28;20205;-68
2022/03/05 09:45:34;;;;;;;33.30;17.37;;;;;;;4.85;67.97;101603.72;5113886;28;20614;-68
2022/03/05 09:48:03;;;;;;;33.20;16.53;;;;;;;5.08;66.22;101608.84;5113728;28;20225;-68
2022/03/05 09:50:32;;;;;;;27.70;17.03;;;;;;;5.12;66.27;101614.00;5113714;28;20193;-68
2022/03/05 09:52:59;;;;;;;29.97;16.03;;;;;;;5.40;65.61;101601.75;5113541;28;20673;-68
2022/03/05 09:55:26;;;;;;;26.73;15.80;;;;;;;5.53;65.03;101610.31;5113664;28;20173;-69
2022/03/05 09:57:53;;;;;;;29.77;16.80;;;;;;;5.47;64.19;101611.22;5113757;28;20180;-68
2022/03/05 10:00:20;;;;;;;30.20;17.73;;;;;;;5.65;66.02;101612.00;5113396;28;20193;-70
2022/03/05 10:02:47;;;;;;;29.37;16.17;;;;;;;5.55;64.12;101613.75;5113531;28;20576;-71
2022/03/05 10:05:24;;;;;;;32.77;16.93;;;;;;;5.67;63.49;101611.09;5113769;28;20201;-70
2022/03/05 10:08:12;;;;;;;27.03;16.33;;;;;;;5.73;64.64;101610.19;5113917;28;20180;-70
2022/03/05 10:10:51;;;;;;;32.23;17.33;;;;;;;5.87;63.45;101612.72;5113603;28;20227;-70
2022/03/05 10:13:26;;;;;;;34.23;16.90;;;;;;;5.86;63.00;101608.34;5113783;28;20180;-70
2022/03/05 10:15:55;;;;;;;28.83;16.03;;;;;;;6.06;62.89;101609.09;5113553;28;20165;-70
2022/03/05 10:18:29;;;;;;;34.20;17.13;;;;;;;6.13;62.27;101602.09;5113602;28;20173;-70
2022/03/05 10:20:56;;;;;;;27.63;16.17;;;;;;;6.13;61.67;101600.38;5113167;28;20245;-70
2022/03/05 10:23:24;;;;;;;34.60;17.23;;;;;;;6.44;61.94;101598.38;5113729;28;20188;-70
2022/03/05 10:25:53;;;;;;;25.73;17.70;;;;;;;6.60;62.08;101591.25;5113317;28;20188;-70
2022/03/05 10:28:28;;;;;;;24.53;15.43;;;;;;;7.04;59.64;101593.34;5113471;28;20553;-70
2022/03/05 10:31:03;;;;;;;24.07;16.00;;;;;;;7.20;59.25;101598.34;5113293;28;20205;-70
2022/03/05 10:33:35;;;;;;;38.30;17.47;;;;;;;7.23;58.06;101599.16;5095033;28;20532;-70
2022/03/05 10:36:02;;;;;;;27.53;17.07;;;;;;;7.25;58.22;101594.78;5113714;28;20648;-71
2022/03/05 10:38:47;;;;;;;35.90;16.97;;;;;;;7.56;56.97;101591.75;5112960;28;20183;-70
2022/03/05 10:41:17;;;;;;;28.57;17.27;;;;;;;7.56;57.65;101590.00;5113333;28;20236;-70
2022/03/05 10:44:05;;;;;;;28.27;17.23;;;;;;;7.64;56.50;101587.28;5113474;28;20173;-70
2022/03/05 10:46:42;;;;;;;34.27;16.83;;;;;;;7.83;56.01;101590.47;5113407;28;20165;-70
2022/03/05 10:49:18;;;;;;;26.67;17.03;;;;;;;8.04;56.08;101587.50;5112969;28;20203;-70
2022/03/05 10:51:46;;;;;;;25.20;16.30;;;;;;;8.12;54.61;101593.47;5112404;28;20242;-70
2022/03/05 10:54:25;;;;;;;32.03;17.23;;;;;;;8.09;54.98;101588.31;5115370;28;20185;-71
2022/03/05 10:56:54;;;;;;;30.20;17.47;;;;;;;8.22;53.79;101582.00;5116801;28;20180;-71
2022/03/05 10:59:22;;;;;;;26.50;17.00;;;;;;;8.44;54.21;101584.25;5116432;28;20181;-70
2022/03/05 11:01:49;;;;;;;28.50;18.10;;;;;;;8.52;53.95;101593.66;5116179;28;20218;-71
2022/03/05 11:04:18;;;;;;;25.73;15.57;;;;;;;8.51;53.22;101585.84;5116834;28;20173;-70
2022/03/05 11:06:45;;;;;;;23.40;15.43;;;;;;;8.47;53.33;101584.19;5081520;28;20200;-71
2022/03/05 11:09:13;;;;;;;27.13;16.57;;;;;;;8.47;52.54;101582.44;5081121;28;20743;-70
2022/03/05 11:11:42;;;;;;;28.67;16.70;;;;;;;8.57;53.84;101582.25;5097865;28;20212;-70
2022/03/05 11:14:14;;;;;;;27.50;16.63;;;;;;;8.89;54.37;101579.88;5117010;28;20275;-70
2022/03/05 11:16:42;;;;;;;24.53;16.17;;;;;;;9.30;53.56;101578.16;5116598;28;20168;-70